Terminal Aerodrome Forecast
Issued by NWS Cleveland, OH

Home | Current Version | Previous Version | Text Only | Print | Product List | Glossary On
Versions: 1 2 3 4 5 6 7 8 9 10 11 12 13 14 15 16 17 18 19
000
FTUS41 KCLE 271700
TAFMFD
TAF
KMFD 271738Z 2718/2818 29010KT P6SM OVC040
     FM272200 29010KT P6SM -SHSN OVC025
      TEMPO 2722/2802 2SM -SHSN OVC015
     FM280600 29008KT P6SM OVC035
     FM281200 26006KT P6SM SCT035
     FM281400 21006KT P6SM BKN200=

USA.gov is the U.S. government's official web portal to all federal, state and local government web resources and services.